Time;durP1;ratioP1;P1;durP2;ratioP2;P2;SDS_P1;SDS_P2;PMS_P1;PMS_P2;Temp;Humidity;BMP_temperature;BMP_pressure;BME280_temperature;BME280_humidity;BME280_pressure;Samples;Min_cycle;Max_cycle;Signal;HPM_P1;HPM_P2
2023/12/30 00:01:30;;;;;;;3.80;1.80;;;;;;;8.05;68.03;96288.68;108919;1271;24510;-78
2023/12/30 00:04:01;;;;;;;2.50;2.10;;;;;;;8.08;67.96;96291.41;108944;1271;22635;-79
2023/12/30 00:06:33;;;;;;;3.70;2.30;;;;;;;8.04;67.80;96287.78;108942;1271;22557;-79
2023/12/30 00:09:04;;;;;;;4.80;2.40;;;;;;;7.98;67.87;96287.16;109030;1271;22696;-78
2023/12/30 00:11:35;;;;;;;3.40;2.40;;;;;;;7.96;67.88;96283.68;109127;1264;22508;-78
2023/12/30 00:14:07;;;;;;;3.40;2.10;;;;;;;7.92;67.88;96278.64;108998;1271;22701;-79
2023/12/30 00:16:39;;;;;;;2.90;1.40;;;;;;;7.90;67.99;96279.13;108942;1271;22535;-78
2023/12/30 00:19:14;;;;;;;2.30;1.40;;;;;;;7.89;67.93;96288.48;108988;1271;22711;-78
2023/12/30 00:21:48;;;;;;;4.00;2.10;;;;;;;7.85;67.93;96287.78;109033;1271;22518;-78
2023/12/30 00:24:21;;;;;;;3.10;1.80;;;;;;;7.79;68.06;96296.46;108999;1268;22683;-78
2023/12/30 00:26:54;;;;;;;4.90;2.70;;;;;;;7.75;68.07;96293.20;108995;1271;24360;-78
2023/12/30 00:29:28;;;;;;;2.80;1.90;;;;;;;7.74;68.00;96286.81;108913;1271;22529;-78
2023/12/30 00:32:02;;;;;;;3.10;1.80;;;;;;;7.80;67.75;96293.40;108948;1271;24994;-78
2023/12/30 00:34:36;;;;;;;4.10;2.20;;;;;;;7.80;67.49;96287.43;108941;1271;23983;-78
2023/12/30 00:37:07;;;;;;;3.50;1.80;;;;;;;7.82;67.22;96285.89;109008;1271;22565;-79
2023/12/30 00:39:40;;;;;;;3.00;1.90;;;;;;;7.78;67.29;96283.65;109023;1271;22525;-78
2023/12/30 00:42:11;;;;;;;1.80;1.30;;;;;;;7.74;67.30;96287.33;108924;1250;23788;-78
2023/12/30 00:44:44;;;;;;;3.90;2.40;;;;;;;7.77;67.05;96279.27;108915;1271;22566;-78
2023/12/30 00:47:17;;;;;;;4.40;1.80;;;;;;;7.78;67.02;96276.26;109024;1271;22525;-78
2023/12/30 00:49:48;;;;;;;2.40;1.70;;;;;;;7.82;66.80;96280.77;109007;1271;23822;-78
2023/12/30 00:52:19;;;;;;;2.80;1.90;;;;;;;7.77;66.82;96281.85;108986;1271;25309;-79
2023/12/30 00:54:52;;;;;;;3.60;1.30;;;;;;;7.70;66.74;96287.18;108995;1264;24225;-78
2023/12/30 00:57:23;;;;;;;3.20;2.30;;;;;;;7.70;66.81;96291.14;108984;1271;22501;-79
2023/12/30 00:59:54;;;;;;;2.50;2.00;;;;;;;7.74;66.65;96288.13;108936;1271;22611;-78
2023/12/30 01:02:25;;;;;;;3.00;2.10;;;;;;;7.72;66.80;96288.02;108894;1271;22692;-78
2023/12/30 01:04:56;;;;;;;3.00;1.50;;;;;;;7.63;66.63;96280.52;109033;1271;22790;-78
2023/12/30 01:07:30;;;;;;;3.80;2.30;;;;;;;7.65;66.81;96283.94;108956;1271;22488;-78
2023/12/30 01:10:02;;;;;;;2.70;1.70;;;;;;;7.63;66.85;96287.69;109020;1271;23843;-78
2023/12/30 01:12:33;;;;;;;2.70;2.00;;;;;;;7.66;66.66;96285.61;109023;1271;27148;-78
2023/12/30 01:15:04;;;;;;;3.40;2.30;;;;;;;7.63;66.64;96286.31;109005;1268;25168;-78
2023/12/30 01:17:35;;;;;;;2.10;1.60;;;;;;;7.60;66.82;96284.73;109048;1268;23964;-79
2023/12/30 01:20:08;;;;;;;3.60;2.60;;;;;;;7.54;66.89;96282.10;108967;1269;23869;-79
2023/12/30 01:22:39;;;;;;;2.90;1.60;;;;;;;7.50;67.08;96276.90;108984;1268;25564;-78
2023/12/30 01:25:12;;;;;;;3.70;2.40;;;;;;;7.63;67.21;96272.27;109013;1268;22652;-79
2023/12/30 01:27:46;;;;;;;3.20;2.30;;;;;;;7.66;67.16;96276.02;108995;1271;22559;-78
2023/12/30 01:30:17;;;;;;;3.10;1.90;;;;;;;7.60;67.36;96268.68;109036;1253;22536;-78
2023/12/30 01:32:51;;;;;;;3.10;1.80;;;;;;;7.62;67.63;96265.36;108946;1271;22846;-78
2023/12/30 01:35:24;;;;;;;2.70;1.90;;;;;;;7.70;67.71;96267.02;108957;1271;22536;-79
2023/12/30 01:37:55;;;;;;;4.20;1.90;;;;;;;7.71;67.80;96270.19;108952;1271;22521;-78
2023/12/30 01:40:27;;;;;;;3.80;2.20;;;;;;;7.69;67.81;96264.29;108981;1271;22676;-79
2023/12/30 01:43:02;;;;;;;2.70;2.20;;;;;;;7.66;67.91;96268.68;109253;1270;22612;-78
2023/12/30 01:45:33;;;;;;;5.10;2.90;;;;;;;7.58;68.02;96266.22;109264;1255;22543;-78
2023/12/30 01:48:05;;;;;;;3.10;2.40;;;;;;;7.53;68.22;96265.16;109275;1268;22521;-78
2023/12/30 01:50:36;;;;;;;3.00;1.90;;;;;;;7.51;68.42;96257.69;109271;1271;24034;-78
2023/12/30 01:53:08;;;;;;;3.70;2.50;;;;;;;7.55;68.82;96252.66;109262;1271;24189;-78
2023/12/30 01:55:42;;;;;;;3.50;2.10;;;;;;;7.55;68.80;96257.94;109265;1270;25407;-78
2023/12/30 01:58:16;;;;;;;2.80;2.00;;;;;;;7.51;68.93;96249.77;109255;1269;22515;-78
2023/12/30 02:00:51;;;;;;;4.60;2.80;;;;;;;7.50;68.85;96244.50;109257;1248;25300;-78
2023/12/30 02:03:23;;;;;;;3.50;2.50;;;;;;;7.46;68.88;96246.73;109306;1271;22522;-78
2023/12/30 02:05:54;;;;;;;3.50;2.30;;;;;;;7.42;69.15;96243.51;109257;1271;22505;-78
2023/12/30 02:08:26;;;;;;;2.50;2.00;;;;;;;7.44;69.24;96245.19;109241;1260;22578;-78
2023/12/30 02:10:59;;;;;;;3.70;1.90;;;;;;;7.53;69.46;96245.70;109279;1271;24524;-78
2023/12/30 02:13:30;;;;;;;3.80;1.90;;;;;;;7.55;69.58;96245.80;109278;1272;22522;-78
2023/12/30 02:16:00;;;;;;;3.50;2.40;;;;;;;7.69;69.76;96239.34;109246;1271;22677;-78
2023/12/30 02:18:32;;;;;;;3.20;2.20;;;;;;;7.80;69.54;96234.77;109240;1271;22625;-78
2023/12/30 02:21:02;;;;;;;2.60;1.20;;;;;;;7.84;69.53;96231.00;109299;1271;24630;-78
2023/12/30 02:23:33;;;;;;;3.70;1.40;;;;;;;7.85;69.40;96219.64;109275;1271;22520;-78
2023/12/30 02:26:06;;;;;;;3.90;2.40;;;;;;;7.87;69.16;96220.63;109296;1271;22524;-78
2023/12/30 02:28:37;;;;;;;4.90;1.80;;;;;;;7.83;69.15;96222.50;109266;1264;24164;-79
2023/12/30 02:31:09;;;;;;;3.30;1.90;;;;;;;7.80;68.97;96223.25;109257;1271;25831;-78
2023/12/30 02:33:40;;;;;;;3.40;1.90;;;;;;;7.84;69.09;96220.44;109328;1268;22469;-79
2023/12/30 02:36:11;;;;;;;2.60;1.80;;;;;;;7.87;69.01;96216.57;109313;1271;22534;-79
2023/12/30 02:38:44;;;;;;;2.30;1.50;;;;;;;7.91;68.80;96213.03;109293;1271;22667;-79
2023/12/30 02:41:18;;;;;;;3.40;2.00;;;;;;;7.94;68.74;96218.35;109247;1271;22532;-78
2023/12/30 02:43:59;;;;;;;4.60;2.20;;;;;;;7.93;68.52;96215.18;109323;1260;22532;-79
2023/12/30 02:46:32;;;;;;;2.40;1.50;;;;;;;7.86;68.51;96216.42;109270;1271;22530;-79
2023/12/30 02:49:04;;;;;;;3.30;1.20;;;;;;;7.75;68.63;96212.81;109298;1271;22523;-79
2023/12/30 02:51:35;;;;;;;2.60;1.70;;;;;;;7.76;68.83;96203.11;109303;1271;22586;-78
2023/12/30 02:54:06;;;;;;;2.40;1.30;;;;;;;7.77;68.76;96211.13;109319;1271;23978;-79
2023/12/30 02:56:40;;;;;;;2.70;2.10;;;;;;;7.78;68.84;96205.59;109302;1271;25416;-79
2023/12/30 02:59:15;;;;;;;4.50;2.00;;;;;;;7.78;68.60;96204.90;109323;1264;23786;-79
2023/12/30 03:01:46;;;;;;;3.60;2.00;;;;;;;7.70;68.63;96203.71;109305;1271;22687;-78
2023/12/30 03:04:17;;;;;;;2.10;1.80;;;;;;;7.63;68.60;96199.15;109243;1271;22514;-78
2023/12/30 03:06:48;;;;;;;2.40;2.10;;;;;;;7.55;68.54;96196.90;109291;1271;22521;-78
2023/12/30 03:09:19;;;;;;;3.40;2.20;;;;;;;7.45;68.68;96195.19;109281;1270;25422;-78
2023/12/30 03:11:53;;;;;;;3.20;2.20;;;;;;;7.44;69.03;96179.69;109213;1271;24859;-79
2023/12/30 03:14:25;;;;;;;2.90;1.90;;;;;;;7.50;68.97;96184.73;109256;1264;25406;-78
2023/12/30 03:16:57;;;;;;;3.10;1.70;;;;;;;7.50;69.06;96180.99;109321;1265;23815;-78
2023/12/30 03:19:30;;;;;;;3.00;1.50;;;;;;;7.58;69.24;96182.95;109288;1272;22517;-79
2023/12/30 03:22:01;;;;;;;1.90;1.20;;;;;;;7.64;69.06;96182.31;109176;1271;130422;-78
2023/12/30 03:24:34;;;;;;;3.40;2.10;;;;;;;7.67;68.93;96183.56;109304;1265;25327;-79
2023/12/30 03:27:06;;;;;;;3.20;1.80;;;;;;;7.64;68.91;96175.83;109335;1271;22535;-78
2023/12/30 03:29:36;;;;;;;3.70;2.10;;;;;;;7.64;68.99;96168.60;109300;1271;23868;-78
2023/12/30 03:32:09;;;;;;;4.00;2.10;;;;;;;7.63;68.99;96160.48;109251;1267;22548;-78
2023/12/30 03:34:43;;;;;;;2.60;1.80;;;;;;;7.63;68.94;96161.21;109311;1271;22521;-78
2023/12/30 03:37:14;;;;;;;3.50;2.10;;;;;;;7.59;68.84;96151.56;109270;1271;23245;-78
2023/12/30 03:39:45;;;;;;;3.80;2.30;;;;;;;7.55;68.93;96136.96;109276;1271;22475;-78
2023/12/30 03:42:16;;;;;;;1.80;1.30;;;;;;;7.56;69.01;96140.19;109247;1271;25406;-78
2023/12/30 03:44:47;;;;;;;3.00;2.40;;;;;;;7.51;68.95;96140.84;109275;1271;22542;-78
2023/12/30 03:47:18;;;;;;;3.30;2.30;;;;;;;7.47;69.05;96140.23;109308;1271;22462;-79
2023/12/30 03:49:49;;;;;;;2.90;1.80;;;;;;;7.46;69.05;96137.90;109271;1271;22594;-78
2023/12/30 03:52:22;;;;;;;2.70;2.10;;;;;;;7.50;69.25;96126.81;109239;1266;25281;-78
2023/12/30 03:54:55;;;;;;;3.60;2.40;;;;;;;7.48;69.06;96141.43;109282;1264;22529;-78
2023/12/30 03:57:27;;;;;;;4.30;2.00;;;;;;;7.40;69.15;96135.60;109303;1267;22507;-78
2023/12/30 03:59:58;;;;;;;1.40;1.20;;;;;;;7.37;69.30;96134.20;109269;1271;22565;-78
2023/12/30 04:02:29;;;;;;;2.70;2.20;;;;;;;7.41;69.40;96144.20;109241;1271;25709;-78
2023/12/30 04:05:00;;;;;;;3.30;2.30;;;;;;;7.40;69.31;96142.92;109266;1271;22621;-78
2023/12/30 04:07:31;;;;;;;2.80;2.00;;;;;;;7.36;69.19;96143.52;109264;1271;23903;-78
2023/12/30 04:10:02;;;;;;;2.80;1.40;;;;;;;7.34;69.26;96143.12;109258;1269;23296;-78
2023/12/30 04:12:35;;;;;;;2.60;1.80;;;;;;;7.36;69.35;96138.36;109243;1271;25425;-78
2023/12/30 04:15:08;;;;;;;3.10;1.80;;;;;;;7.40;69.26;96136.55;109277;1264;22477;-78
2023/12/30 04:17:39;;;;;;;3.30;2.10;;;;;;;7.42;69.35;96138.55;109327;1271;23005;-78
2023/12/30 04:20:14;;;;;;;4.30;2.30;;;;;;;7.41;69.17;96141.34;109259;1271;22652;-78
2023/12/30 04:22:45;;;;;;;4.20;2.20;;;;;;;7.38;69.18;96140.56;109255;1248;23334;-78
2023/12/30 04:25:16;;;;;;;3.70;2.20;;;;;;;7.45;69.29;96145.86;109270;1271;22524;-77
2023/12/30 04:27:46;;;;;;;2.50;2.20;;;;;;;7.37;69.05;96148.53;109283;1248;22539;-77
2023/12/30 04:30:17;;;;;;;2.70;1.90;;;;;;;7.29;69.22;96155.77;109259;1264;22596;-77
2023/12/30 04:32:51;;;;;;;3.50;2.40;;;;;;;7.31;69.38;96151.51;109245;1271;22523;-78
2023/12/30 04:35:21;;;;;;;5.30;2.90;;;;;;;7.33;69.32;96148.96;109270;1271;22552;-78
2023/12/30 04:37:52;;;;;;;1.90;1.50;;;;;;;7.29;69.20;96143.75;109344;1271;22497;-78
2023/12/30 04:40:23;;;;;;;3.70;2.30;;;;;;;7.29;69.25;96145.13;109261;1264;24314;-78
2023/12/30 04:42:54;;;;;;;4.20;2.20;;;;;;;7.34;69.19;96142.80;109314;1271;23118;-78
2023/12/30 04:45:25;;;;;;;3.40;2.00;;;;;;;7.31;69.05;96150.66;109285;1271;22668;-78
2023/12/30 04:47:55;;;;;;;2.60;1.70;;;;;;;7.31;68.99;96143.84;109296;1271;23802;-78
2023/12/30 04:50:26;;;;;;;3.00;1.80;;;;;;;7.33;69.00;96146.08;109292;1271;23228;-78
2023/12/30 04:52:58;;;;;;;2.70;1.80;;;;;;;7.32;68.78;96147.44;109291;1254;24812;-78
2023/12/30 04:55:29;;;;;;;3.20;2.10;;;;;;;7.27;68.83;96142.45;109281;1271;24363;-78
2023/12/30 04:58:01;;;;;;;4.00;2.40;;;;;;;7.19;68.83;96134.04;109314;1271;22541;-78
2023/12/30 05:00:32;;;;;;;2.60;1.70;;;;;;;7.09;68.75;96134.22;109295;1264;22821;-78
2023/12/30 05:03:03;;;;;;;2.70;1.90;;;;;;;7.02;68.97;96135.95;109260;1271;22726;-78
2023/12/30 05:05:35;;;;;;;3.50;2.20;;;;;;;6.99;69.00;96144.29;109223;1271;22644;-78
2023/12/30 05:08:10;;;;;;;3.00;1.80;;;;;;;6.96;68.95;96152.73;109301;1271;22517;-78
2023/12/30 05:10:41;;;;;;;2.60;1.70;;;;;;;6.93;68.96;96147.11;109261;1271;22601;-78
2023/12/30 05:13:14;;;;;;;3.30;2.10;;;;;;;6.91;69.07;96153.95;109271;1264;22917;-78
2023/12/30 05:15:45;;;;;;;3.90;2.50;;;;;;;6.88;69.08;96150.27;109258;1267;25399;-78
2023/12/30 05:18:16;;;;;;;2.10;1.60;;;;;;;6.87;69.28;96153.73;109254;1264;24312;-78
2023/12/30 05:20:47;;;;;;;2.50;1.70;;;;;;;6.88;69.03;96147.36;109274;1264;24211;-78
2023/12/30 05:23:17;;;;;;;2.10;1.30;;;;;;;6.84;68.92;96150.39;109308;1271;22471;-78
2023/12/30 05:25:49;;;;;;;1.70;1.40;;;;;;;6.82;69.08;96140.89;109293;1264;22462;-78
2023/12/30 05:28:19;;;;;;;1.30;1.00;;;;;;;6.78;69.11;96134.53;109271;1271;25529;-78
2023/12/30 05:30:52;;;;;;;3.00;1.90;;;;;;;6.78;69.34;96137.33;109267;1269;25943;-78
2023/12/30 05:33:23;;;;;;;0.90;0.80;;;;;;;6.82;69.15;96132.67;109251;1267;24274;-78
2023/12/30 05:35:54;;;;;;;2.80;1.60;;;;;;;6.90;68.94;96128.92;109287;1271;22583;-79
2023/12/30 05:38:25;;;;;;;3.10;1.80;;;;;;;6.91;68.71;96129.20;109309;1267;23335;-79
2023/12/30 05:40:58;;;;;;;3.30;1.60;;;;;;;6.89;68.64;96139.83;109264;1266;23053;-78
2023/12/30 05:43:29;;;;;;;3.00;1.50;;;;;;;6.94;68.49;96152.01;109295;1269;22654;-79
2023/12/30 05:46:00;;;;;;;4.10;1.90;;;;;;;7.00;68.46;96162.63;109330;1271;22680;-79
2023/12/30 05:48:31;;;;;;;2.90;1.90;;;;;;;7.00;68.34;96191.52;109294;1271;24237;-79
2023/12/30 05:51:02;;;;;;;2.20;1.30;;;;;;;6.94;68.13;96199.54;109253;1271;22522;-78
2023/12/30 05:53:33;;;;;;;4.40;2.00;;;;;;;6.89;68.11;96205.01;109297;1264;22553;-79
2023/12/30 05:56:04;;;;;;;3.40;1.60;;;;;;;6.86;68.37;96204.80;109296;1271;22517;-79
2023/12/30 05:58:37;;;;;;;2.80;1.80;;;;;;;6.79;68.31;96213.99;109299;1271;22515;-79
2023/12/30 06:01:08;;;;;;;3.00;1.30;;;;;;;6.74;68.60;96217.08;109247;1271;22551;-78
2023/12/30 06:03:44;;;;;;;2.30;1.80;;;;;;;6.71;68.68;96213.02;109309;1269;22530;-78
2023/12/30 06:06:15;;;;;;;3.60;1.90;;;;;;;6.69;68.69;96213.34;109279;1263;22623;-78
2023/12/30 06:08:47;;;;;;;2.30;1.20;;;;;;;6.69;69.03;96219.40;109293;1265;22576;-78
2023/12/30 06:11:22;;;;;;;2.50;1.80;;;;;;;6.67;69.36;96220.20;109217;1271;25378;-79
2023/12/30 06:13:55;;;;;;;3.20;1.90;;;;;;;6.63;69.12;96225.63;109267;1268;23785;-78
2023/12/30 06:16:26;;;;;;;2.30;2.00;;;;;;;6.56;69.27;96225.13;109307;1264;22567;-78
2023/12/30 06:18:58;;;;;;;3.00;1.40;;;;;;;6.49;69.20;96222.28;109314;1260;22514;-79
2023/12/30 06:21:29;;;;;;;3.80;2.00;;;;;;;6.47;69.66;96227.07;109286;1269;22573;-79
2023/12/30 06:24:00;;;;;;;2.60;1.50;;;;;;;6.53;70.02;96218.70;109277;1264;25416;-79
2023/12/30 06:26:31;;;;;;;4.40;2.40;;;;;;;6.65;70.19;96226.04;109265;1271;22530;-79
2023/12/30 06:29:02;;;;;;;3.20;2.10;;;;;;;6.66;70.17;96227.46;109283;1271;22563;-78
2023/12/30 06:31:40;;;;;;;2.00;1.50;;;;;;;6.65;69.91;96226.73;109242;1271;25083;-78
2023/12/30 06:34:16;;;;;;;2.50;2.00;;;;;;;6.64;70.04;96227.27;109309;1271;22795;-78
2023/12/30 06:36:47;;;;;;;4.00;2.00;;;;;;;6.58;69.92;96231.13;109286;1271;22522;-78
2023/12/30 06:39:20;;;;;;;2.80;2.00;;;;;;;6.54;69.89;96236.51;109252;1264;25414;-78
2023/12/30 06:41:54;;;;;;;3.70;2.10;;;;;;;6.52;70.02;96243.67;109276;1271;23009;-78
2023/12/30 06:44:25;;;;;;;2.40;1.80;;;;;;;6.48;70.19;96252.09;109276;1271;22584;-78
2023/12/30 06:46:56;;;;;;;5.00;1.70;;;;;;;6.51;70.70;96249.88;109268;1269;22521;-79
2023/12/30 06:49:27;;;;;;;2.80;1.90;;;;;;;6.65;70.70;96255.60;109272;1264;22562;-78
2023/12/30 06:51:58;;;;;;;3.60;2.20;;;;;;;6.64;70.53;96258.08;109230;1271;22582;-79
2023/12/30 06:54:29;;;;;;;2.90;2.10;;;;;;;6.60;70.68;96258.95;109286;1271;25307;-79
2023/12/30 06:57:01;;;;;;;3.70;1.60;;;;;;;6.61;70.58;96252.58;109255;1271;23062;-79
2023/12/30 06:59:34;;;;;;;4.00;2.50;;;;;;;6.67;70.86;96251.22;109263;1264;22539;-79
2023/12/30 07:02:08;;;;;;;3.00;1.90;;;;;;;6.69;70.60;96253.80;109318;1271;24442;-79
2023/12/30 07:04:42;;;;;;;2.50;2.00;;;;;;;6.70;70.62;96255.33;109298;1271;22517;-79
2023/12/30 07:07:15;;;;;;;3.70;2.00;;;;;;;6.72;70.78;96258.60;109332;1268;22564;-79
2023/12/30 07:09:46;;;;;;;4.70;2.10;;;;;;;6.77;70.87;96256.24;109296;1269;23374;-79
2023/12/30 07:12:17;;;;;;;3.40;2.20;;;;;;;6.84;70.61;96262.93;109305;1271;22570;-79
2023/12/30 07:14:48;;;;;;;3.40;2.50;;;;;;;6.88;70.69;96261.92;109356;1265;22604;-79
2023/12/30 07:17:19;;;;;;;3.60;2.50;;;;;;;6.93;70.78;96268.48;109315;1271;22529;-79
2023/12/30 07:19:52;;;;;;;3.60;1.70;;;;;;;6.95;70.58;96267.43;109319;1271;22515;-79
2023/12/30 07:22:23;;;;;;;2.20;1.70;;;;;;;6.97;70.60;96272.38;109330;1264;22529;-79
2023/12/30 07:24:54;;;;;;;2.70;1.90;;;;;;;7.07;70.81;96278.23;109285;1271;22763;-79
2023/12/30 07:27:26;;;;;;;2.90;1.40;;;;;;;7.20;70.70;96271.68;109313;1268;22489;-79
2023/12/30 07:29:57;;;;;;;2.90;1.80;;;;;;;7.32;70.61;96275.64;109323;1271;22465;-79
2023/12/30 07:32:28;;;;;;;2.70;1.20;;;;;;;7.36;70.24;96276.44;109291;1269;25317;-79
2023/12/30 07:34:59;;;;;;;3.30;2.20;;;;;;;7.45;70.13;96281.37;109319;1271;22587;-79
2023/12/30 07:37:30;;;;;;;2.70;1.60;;;;;;;7.52;69.78;96283.00;109320;1268;23890;-79
2023/12/30 07:40:02;;;;;;;2.40;1.90;;;;;;;7.56;69.56;96282.20;109331;1268;25278;-79
2023/12/30 07:42:33;;;;;;;3.50;2.00;;;;;;;7.58;69.55;96285.98;109350;1269;22671;-79
2023/12/30 07:45:06;;;;;;;3.80;2.00;;;;;;;7.60;69.64;96280.20;109359;1267;22608;-80
2023/12/30 07:47:40;;;;;;;1.20;1.00;;;;;;;7.64;69.55;96281.66;109328;1271;25418;-80
2023/12/30 07:50:12;;;;;;;3.70;1.90;;;;;;;7.65;69.60;96280.55;109307;1268;22596;-79
2023/12/30 07:52:43;;;;;;;3.10;2.00;;;;;;;7.69;69.45;96284.98;109291;1264;25422;-80
2023/12/30 07:55:14;;;;;;;4.40;1.70;;;;;;;7.72;69.55;96286.02;109322;1264;25486;-79
2023/12/30 07:57:47;;;;;;;3.30;2.10;;;;;;;7.75;69.47;96274.05;109318;1266;23698;-79
2023/12/30 08:00:21;;;;;;;3.70;1.90;;;;;;;7.78;69.38;96259.58;109316;1264;22532;-79
2023/12/30 08:02:52;;;;;;;4.80;2.70;;;;;;;7.81;69.44;96265.67;109369;1271;22521;-79
2023/12/30 08:05:23;;;;;;;2.80;1.50;;;;;;;7.84;69.31;96276.34;109327;1265;23048;-79
2023/12/30 08:07:53;;;;;;;2.00;1.30;;;;;;;7.86;69.35;96283.08;109345;1264;24186;-80
2023/12/30 08:10:25;;;;;;;1.80;1.50;;;;;;;7.89;69.33;96289.53;109279;1271;22563;-79
2023/12/30 08:12:59;;;;;;;2.90;1.60;;;;;;;7.92;69.26;96295.05;109295;1271;24547;-79
2023/12/30 08:15:29;;;;;;;3.50;1.80;;;;;;;7.96;69.28;96289.97;109354;1265;22514;-79
2023/12/30 08:18:00;;;;;;;3.40;1.70;;;;;;;8.00;69.16;96287.41;109350;1271;22546;-79
2023/12/30 08:20:33;;;;;;;3.50;2.20;;;;;;;8.02;69.00;96279.88;109417;1265;22597;-79
2023/12/30 08:23:05;;;;;;;2.20;1.80;;;;;;;8.06;68.92;96284.77;109560;1268;22568;-79
2023/12/30 08:25:36;;;;;;;4.70;1.80;;;;;;;8.08;68.85;96290.95;109486;1264;22517;-79
2023/12/30 08:28:09;;;;;;;3.60;2.40;;;;;;;8.12;68.72;96285.80;109365;1263;24315;-79
2023/12/30 08:30:46;;;;;;;4.90;2.00;;;;;;;8.12;68.87;96301.58;109406;1271;25832;-77
2023/12/30 08:33:18;;;;;;;2.30;1.70;;;;;;;8.09;69.15;96305.61;109428;1271;22592;-79
2023/12/30 08:35:51;;;;;;;2.80;1.50;;;;;;;8.07;69.17;96303.52;109365;1264;25512;-79
2023/12/30 08:38:23;;;;;;;3.80;2.10;;;;;;;8.06;69.53;96295.70;109319;1271;22589;-78
2023/12/30 08:40:54;;;;;;;2.60;1.50;;;;;;;8.04;69.33;96307.38;109307;1264;22487;-78
2023/12/30 08:43:25;;;;;;;3.80;2.40;;;;;;;8.04;69.55;96316.92;109317;1264;22836;-79
2023/12/30 08:45:56;;;;;;;3.40;1.80;;;;;;;8.06;69.64;96319.94;109405;1268;25421;-79
2023/12/30 08:48:27;;;;;;;3.50;2.00;;;;;;;8.09;69.64;96328.80;109322;1271;22544;-79
2023/12/30 08:50:58;;;;;;;1.90;1.50;;;;;;;8.08;69.61;96320.34;109333;1265;32027;-79
2023/12/30 08:53:29;;;;;;;3.40;2.30;;;;;;;8.09;69.65;96332.48;109285;1263;22579;-79
2023/12/30 08:56:02;;;;;;;3.40;2.50;;;;;;;8.06;69.56;96326.74;109292;1264;22649;-79
2023/12/30 08:58:33;;;;;;;3.70;2.20;;;;;;;8.06;69.63;96322.31;109249;1271;22605;-79
2023/12/30 09:01:05;;;;;;;1.80;1.30;;;;;;;8.04;69.75;96313.88;109290;1265;24255;-79
2023/12/30 09:03:40;;;;;;;2.00;1.70;;;;;;;8.07;69.59;96315.77;109278;1265;22472;-79
2023/12/30 09:06:15;;;;;;;4.90;2.70;;;;;;;8.08;69.64;96310.31;109515;1271;22670;-79
2023/12/30 09:08:46;;;;;;;3.00;2.20;;;;;;;8.08;69.62;96314.11;109381;1271;22536;-79
2023/12/30 09:11:21;;;;;;;4.00;2.00;;;;;;;8.08;69.64;96309.58;109276;1271;22523;-79
2023/12/30 09:13:53;;;;;;;1.40;1.20;;;;;;;8.10;69.59;96310.30;109208;1265;25310;-79
2023/12/30 09:16:24;;;;;;;3.90;2.30;;;;;;;8.14;69.71;96319.90;109266;1268;22585;-79
2023/12/30 09:18:55;;;;;;;2.50;1.40;;;;;;;8.23;69.59;96319.19;109266;1271;22513;-79
2023/12/30 09:21:29;;;;;;;2.90;2.00;;;;;;;8.33;69.43;96319.22;109238;1271;22643;-79
2023/12/30 09:24:00;;;;;;;2.70;1.50;;;;;;;8.44;68.81;96326.53;109246;1265;23284;-79
2023/12/30 09:26:31;;;;;;;2.80;1.80;;;;;;;8.42;68.53;96324.20;109257;1265;24289;-79
2023/12/30 09:29:03;;;;;;;4.40;1.90;;;;;;;8.36;68.16;96314.83;109272;1264;24180;-79
2023/12/30 09:31:35;;;;;;;3.20;2.00;;;;;;;8.28;68.28;96317.47;109289;1260;22543;-79
2023/12/30 09:34:06;;;;;;;3.30;2.00;;;;;;;8.25;68.33;96316.06;109260;1264;22478;-79
2023/12/30 09:36:38;;;;;;;1.30;1.00;;;;;;;8.22;68.37;96304.35;109280;1264;24204;-79
2023/12/30 09:39:11;;;;;;;5.40;3.10;;;;;;;8.17;68.41;96304.02;109291;1264;22552;-79
2023/12/30 09:41:43;;;;;;;4.20;2.00;;;;;;;8.12;68.19;96290.77;109254;1266;23638;-79
2023/12/30 09:44:15;;;;;;;1.80;1.30;;;;;;;8.08;68.45;96306.30;109235;1264;22581;-79
2023/12/30 09:46:50;;;;;;;2.80;1.80;;;;;;;8.07;68.23;96303.66;109280;1271;22558;-79
2023/12/30 09:49:23;;;;;;;4.40;2.40;;;;;;;8.14;67.83;96293.80;109335;1271;23208;-79
2023/12/30 09:51:54;;;;;;;4.10;2.30;;;;;;;8.20;67.42;96292.44;109236;1265;22539;-80
2023/12/30 09:54:27;;;;;;;4.50;1.70;;;;;;;8.38;67.02;96292.21;109307;1265;24160;-79
2023/12/30 09:56:59;;;;;;;3.70;1.80;;;;;;;8.48;66.19;96298.73;109246;1265;24994;-79
2023/12/30 09:59:35;;;;;;;2.20;1.10;;;;;;;8.48;64.74;96289.11;109238;1271;22842;-80
2023/12/30 10:02:12;;;;;;;1.70;1.10;;;;;;;8.52;64.51;96288.29;109294;1271;22834;-79
2023/12/30 10:04:44;;;;;;;1.60;1.10;;;;;;;8.68;63.93;96283.70;109244;1264;25265;-79
2023/12/30 10:07:15;;;;;;;2.60;1.80;;;;;;;8.83;63.26;96285.69;109271;1271;22572;-79
2023/12/30 10:09:51;;;;;;;2.20;1.50;;;;;;;8.82;63.04;96289.43;109265;1265;23802;-79
2023/12/30 10:12:23;;;;;;;1.90;1.40;;;;;;;8.86;63.05;96292.85;109212;1271;22633;-79
2023/12/30 10:14:54;;;;;;;2.80;1.80;;;;;;;9.03;63.58;96297.75;109254;1271;23173;-79
2023/12/30 10:17:26;;;;;;;4.00;2.00;;;;;;;9.07;62.45;96289.27;109323;1271;25460;-79
2023/12/30 10:19:57;;;;;;;2.30;1.50;;;;;;;9.00;62.33;96292.65;109289;1264;23869;-79
2023/12/30 10:22:28;;;;;;;3.70;1.60;;;;;;;8.89;62.30;96289.81;109303;1264;22541;-79
2023/12/30 10:25:02;;;;;;;2.80;1.60;;;;;;;8.71;62.51;96286.33;109238;1266;23216;-79
2023/12/30 10:27:33;;;;;;;1.90;1.10;;;;;;;8.59;62.21;96287.56;109324;1265;24469;-79
2023/12/30 10:30:08;;;;;;;2.30;1.30;;;;;;;8.58;62.11;96281.80;109282;1265;22706;-79
2023/12/30 10:32:39;;;;;;;4.00;1.30;;;;;;;8.62;61.56;96279.98;109279;1271;22539;-79
2023/12/30 10:35:10;;;;;;;2.00;1.30;;;;;;;8.87;61.23;96288.24;109293;1265;24145;-79
2023/12/30 10:37:43;;;;;;;2.70;1.60;;;;;;;9.04;59.88;96278.45;109291;1268;24302;-79
2023/12/30 10:40:15;;;;;;;2.50;1.30;;;;;;;9.12;59.61;96298.38;109285;1264;22532;-80
2023/12/30 10:42:46;;;;;;;1.60;1.20;;;;;;;9.19;59.67;96297.17;109282;1265;23854;-79
2023/12/30 10:45:17;;;;;;;2.20;1.30;;;;;;;9.26;58.58;96287.30;109285;1267;22668;-79
2023/12/30 10:47:51;;;;;;;3.30;1.50;;;;;;;9.25;58.92;96300.98;109391;1264;22523;-79
2023/12/30 10:50:26;;;;;;;1.90;1.20;;;;;;;9.19;57.81;96296.95;109313;1265;25265;-80
2023/12/30 10:53:04;;;;;;;3.20;1.10;;;;;;;9.08;58.28;96307.08;109276;1271;22595;-79
2023/12/30 10:55:41;;;;;;;1.90;1.10;;;;;;;9.12;58.48;96299.00;109264;1268;25335;-79
2023/12/30 10:58:18;;;;;;;2.80;1.30;;;;;;;9.14;58.49;96306.77;109360;1271;22517;-79
2023/12/30 11:00:53;;;;;;;1.20;0.80;;;;;;;9.07;58.10;96306.98;109308;1271;24173;-79
2023/12/30 11:03:26;;;;;;;2.40;1.30;;;;;;;8.96;58.01;96288.97;109280;1271;22527;-80
2023/12/30 11:06:04;;;;;;;2.00;1.20;;;;;;;8.92;57.95;96297.41;109295;1271;22518;-80
2023/12/30 11:08:36;;;;;;;2.30;1.30;;;;;;;8.89;57.97;96308.80;109275;1266;24273;-80
2023/12/30 11:11:11;;;;;;;3.50;1.20;;;;;;;8.87;58.10;96300.14;109275;1260;22609;-79
2023/12/30 11:13:43;;;;;;;3.00;1.40;;;;;;;8.98;58.62;96305.83;109271;1268;23991;-79
2023/12/30 11:16:16;;;;;;;2.00;1.00;;;;;;;9.18;58.24;96297.80;109286;1268;22547;-79
2023/12/30 11:18:49;;;;;;;2.50;1.30;;;;;;;9.36;57.87;96300.58;109284;1268;23070;-79
2023/12/30 11:21:39;;;;;;;2.90;1.50;;;;;;;9.36;57.38;96303.63;109295;1265;23469;-80
2023/12/30 11:24:18;;;;;;;2.60;1.20;;;;;;;9.28;57.28;96306.14;109263;1266;22572;-79
2023/12/30 11:26:52;;;;;;;2.00;1.20;;;;;;;9.19;57.30;96298.70;109302;1264;22525;-79
2023/12/30 11:29:28;;;;;;;4.30;1.40;;;;;;;9.18;57.21;96295.05;109292;1264;22594;-78
2023/12/30 11:32:02;;;;;;;2.30;1.20;;;;;;;9.17;57.26;96302.37;109291;1264;24029;-79
2023/12/30 11:34:33;;;;;;;2.90;1.70;;;;;;;9.16;57.91;96305.48;109299;1271;22535;-78
2023/12/30 11:37:08;;;;;;;1.80;0.90;;;;;;;9.24;57.58;96303.16;109267;1271;22648;-78
2023/12/30 11:39:44;;;;;;;3.00;1.40;;;;;;;9.33;57.10;96305.27;109343;1271;22566;-79
2023/12/30 11:42:17;;;;;;;3.00;1.60;;;;;;;9.31;56.87;96315.13;109317;1265;22517;-78
2023/12/30 11:44:50;;;;;;;2.60;1.40;;;;;;;9.34;56.39;96299.27;109290;1265;23881;-79
2023/12/30 11:47:24;;;;;;;2.30;1.10;;;;;;;9.32;56.70;96295.27;109257;1265;22816;-80
2023/12/30 11:50:07;;;;;;;2.80;1.50;;;;;;;9.27;56.88;96300.48;109288;1271;22711;-79
2023/12/30 11:52:42;;;;;;;3.50;1.60;;;;;;;9.20;57.08;96304.52;109240;1271;22530;-79
2023/12/30 11:55:14;;;;;;;2.10;1.40;;;;;;;9.14;57.15;96308.73;109280;1271;22469;-79
2023/12/30 11:57:47;;;;;;;2.60;1.40;;;;;;;9.20;57.34;96302.27;109302;1265;22592;-79